Hampton, Virginia
Current Conditions -  °F | °C
As of 3:58 PM on Tuesday 27 Jan 2015 (Local Time) from KLFI Reporting Station
Clear Clear  
Wind Chill: 31°   Ceiling: Unl
Heat Index: 37°   Visibility: 10mi
Dew Point: 26°   Wind: 8mph
Humidity: 65%   Direction: 330°NNW
Pressure: 29.77"   Gusts: NA
Location:  37.03°N, 76.34°W
Report Text: KLFI 272058Z AUTO 33007KT 10SM CLR 03/M03 A2977 RMK AO2 DZB1959E2018 SLP088 P0000 60000 T00281031 53005 $
Loading
Personal Weather Stations






























Interactive Weather Map New forecast layout! Learn more

10-Day Weather Forecast

Advertisements
Track Severe Weather on mobile